Ms. Alissa — WDC8737 — position and weather

sailwx.info

Track history (hours):
 
Tides and Currents Weather Stations Pressure Air Temp Water Temp Dewpoint Dewpoint Depression Visibility Wind Speed Wind Dir Waves Ship Positions

Ms. Alissa

Owner: GOLDEN MEADOW BOAT RENTAL LLC, LAROSE, LA. More information available from US FCC via Universal Licensing System and Coast Guard Vessel Documentation Center.

Last reported at 2017-Nov-08 02:39 UTC. Time now 2017-Nov-24 05:52 UTC.
Position N 29°37' W 092°17'.
Warning: this ship's position is 16 days out of date.

Length 33 m; draft 3 m.

Type: Other ship. MMSI: 366927010.

Date/timePositionNaut miles runAvg speedWind from/ knotsBaromVisibWave heightAir tempDewpointWater temp
2017-Nov-08 02:39N 29°37' W 092°17'1 6.4
2017-Nov-08 02:30N 29°38' W 092°16'3 6.9
2017-Nov-08 02:00N 29°41' W 092°15'4 7.7
2017-Nov-08 01:30N 29°45' W 092°13'4 7.2
2017-Nov-08 01:00N 29°47' W 092°10'2 3.1
2017-Nov-08 00:30N 29°47' W 092°09'0 0.0
2017-Nov-08 00:00N 29°47' W 092°09'0 0.0
2017-Nov-07 23:30N 29°47' W 092°09'0 0.0
2017-Nov-07 23:00N 29°47' W 092°09'0 0.0
2017-Nov-07 22:30N 29°47' W 092°09'0 0.2
2017-Nov-07 22:00N 29°48' W 092°09'0 0.0
2017-Nov-07 21:30N 29°48' W 092°09'0 0.0
2017-Nov-07 21:00N 29°48' W 092°09'0 0.0
2017-Nov-07 20:30N 29°48' W 092°09'0 0.0
2017-Nov-07 20:00N 29°48' W 092°09'0 0.2
2017-Nov-07 19:30N 29°47' W 092°09'0 0.0
2017-Nov-07 19:00N 29°47' W 092°09'0 0.0
2017-Nov-07 18:30N 29°47' W 092°09'0 0.0
2017-Nov-07 18:00N 29°47' W 092°09'0 0.0
2017-Nov-07 17:30N 29°47' W 092°09'0 0.0
2017-Nov-07 17:00N 29°47' W 092°09'0 0.0
2017-Nov-07 16:30N 29°47' W 092°09'0 0.1
2017-Nov-07 16:00N 29°47' W 092°09'3 5.2
2017-Nov-07 15:30N 29°46' W 092°11'4 7.9
2017-Nov-07 15:00N 29°44' W 092°15'3 6.9
2017-Nov-07 14:30N 29°40' W 092°15'  
2017-Nov-02 18:33N 29°49' W 093°20'0 0.0
2017-Nov-02 18:12N 29°49' W 093°20'  
2017-Oct-29 06:45N 29°46' W 093°21'0 0.0
2017-Oct-29 06:25N 29°46' W 093°21'0 0.0
2017-Oct-29 06:00N 29°46' W 093°21'0 0.0
2017-Oct-29 05:30N 29°46' W 093°21'0 0.0
2017-Oct-29 04:59N 29°46' W 093°21'0 0.0
2017-Oct-29 04:30N 29°46' W 093°21'0 0.0
2017-Oct-29 04:00N 29°46' W 093°21'  
Track history (hours):
 
Tides and Currents Weather Stations Pressure Air Temp Water Temp Dewpoint Dewpoint Depression Visibility Wind Speed Wind Dir Waves Ship Positions

Ms. Alissa

Owner: GOLDEN MEADOW BOAT RENTAL LLC, LAROSE, LA. More information available from US FCC via Universal Licensing System and Coast Guard Vessel Documentation Center.

Last reported at 2017-Nov-08 02:39 UTC. Time now 2017-Nov-24 05:52 UTC.
Position N 29°37' W 092°17'.
Warning: this ship's position is 16 days out of date.

Length 33 m; draft 3 m.

Type: Other ship. MMSI: 366927010.

Date/timePositionNaut miles runAvg speedWind from/ knotsBaromVisibWave heightAir tempDewpointWater temp
2017-Nov-08 02:39N 29°37' W 092°17'1 6.4
2017-Nov-08 02:30N 29°38' W 092°16'3 6.9
2017-Nov-08 02:00N 29°41' W 092°15'4 7.7
2017-Nov-08 01:30N 29°45' W 092°13'4 7.2
2017-Nov-08 01:00N 29°47' W 092°10'2 3.1
2017-Nov-08 00:30N 29°47' W 092°09'0 0.0
2017-Nov-08 00:00N 29°47' W 092°09'0 0.0
2017-Nov-07 23:30N 29°47' W 092°09'0 0.0
2017-Nov-07 23:00N 29°47' W 092°09'0 0.0
2017-Nov-07 22:30N 29°47' W 092°09'0 0.2
2017-Nov-07 22:00N 29°48' W 092°09'0 0.0
2017-Nov-07 21:30N 29°48' W 092°09'0 0.0
2017-Nov-07 21:00N 29°48' W 092°09'0 0.0
2017-Nov-07 20:30N 29°48' W 092°09'0 0.0
2017-Nov-07 20:00N 29°48' W 092°09'0 0.2
2017-Nov-07 19:30N 29°47' W 092°09'0 0.0
2017-Nov-07 19:00N 29°47' W 092°09'0 0.0
2017-Nov-07 18:30N 29°47' W 092°09'0 0.0
2017-Nov-07 18:00N 29°47' W 092°09'0 0.0
2017-Nov-07 17:30N 29°47' W 092°09'0 0.0
2017-Nov-07 17:00N 29°47' W 092°09'0 0.0
2017-Nov-07 16:30N 29°47' W 092°09'0 0.1
2017-Nov-07 16:00N 29°47' W 092°09'3 5.2
2017-Nov-07 15:30N 29°46' W 092°11'4 7.9
2017-Nov-07 15:00N 29°44' W 092°15'3 6.9
2017-Nov-07 14:30N 29°40' W 092°15'  
2017-Nov-02 18:33N 29°49' W 093°20'0 0.0
2017-Nov-02 18:12N 29°49' W 093°20'  
2017-Oct-29 06:45N 29°46' W 093°21'0 0.0
2017-Oct-29 06:25N 29°46' W 093°21'0 0.0
2017-Oct-29 06:00N 29°46' W 093°21'0 0.0
2017-Oct-29 05:30N 29°46' W 093°21'0 0.0
2017-Oct-29 04:59N 29°46' W 093°21'0 0.0
2017-Oct-29 04:30N 29°46' W 093°21'0 0.0
2017-Oct-29 04:00N 29°46' W 093°21'  

Dump ship's entire track history